• Join FlightAware (Why Join?)
  • Login
  • US Flag GB Flag 
05:58 EDT


 

Airport Tracker/Info


-or-


 

Live Flight TrackerFlight Track Log ✈ SWA127 ✈ 10-Apr-2013 ✈ KPIT - KMCO

Flight Track Log - Related Links

Times and Time Zones

All times are in EDT time to prevent confusion due to time zone crossing. See the SWA127 flight status page for this flight to view local times or setup timezone preferences in your user account.

Time Position Orientation Groundspeed Altitude Reporting Facility
EDT Latitude Longitude Course Direction KTS MPH feet Rate Location/Type
06:37 40.4692 -80.3183 180° South 220 253 4,200  Level Cleveland Center
06:38 40.3836 -80.3133 177° South 258 297 7,000 2,760 Climbing Cleveland Center
06:39 40.3150 -80.3081 177° South 275 316 9,800 2,520 Climbing Cleveland Center
06:40 40.2378 -80.3056 179° South 316 364 12,100 2,280 Climbing Cleveland Center
06:41 40.1419 -80.3033 179° South 354 407 14,400 2,580 Climbing Cleveland Center
06:42 39.7975 -80.2500 180° South  Level FlightAware Approximate
06:42 40.0417 -80.2983 178° South 362 417 17,300  Level Cleveland Center
06:43 39.9397 -80.2933 178° South 362 417 18,000 1,260 Climbing Cleveland Center
06:45 39.7411 -80.2872 179° South 366 421 21,100 1,680 Climbing Washington Center
06:46 39.6286 -80.2825 178° South 386 444 23,100 1,740 Climbing Washington Center
06:47 39.5122 -80.2778 178° South 402 463 24,600 1,560 Climbing Washington Center
06:48 39.3936 -80.2728 178° South 423 487 26,300 1,500 Climbing Washington Center
06:49 39.2706 -80.2700 179° South 434 499 27,700 1,500 Climbing Washington Center
06:50 39.1508 -80.2972 190° South 440 506 29,300 1,800 Climbing Washington Center
06:51 39.0347 -80.3297 192° South 440 506 31,400 1,560 Climbing Washington Center
06:52 38.9186 -80.3650 193° South 435 501 32,500 780 Climbing Washington Center
06:53 38.8025 -80.4000 193° South 435 501 33,000 780 Climbing Washington Center
06:54 38.6714 -80.4475 196° South 444 511 34,100 1,140 Climbing Washington Center
06:55 38.5661 -80.4750 192° South 439 505 35,300 900 Climbing Washington Center
06:56 38.4519 -80.5100 194° South 434 499 36,000 300 Climbing Washington Center
06:57 38.3339 -80.5419 192° South 434 499 36,000  Level Washington Center
06:58 38.2017 -80.5594 186° South 434 499 36,000  Level Washington Center
06:59 38.0844 -80.5753 186° South 434 499 36,000  Level Washington Center
07:00 37.9647 -80.5939 187° South 434 499 36,000  Level Washington Center
07:01 37.8450 -80.6122 187° South 434 499 36,000  Level Washington Center
07:03 37.6147 -80.6414 186° South 423 487 36,000  Level Atlanta Center
07:04 37.5108 -80.6589 188° South 423 487 36,000  Level Atlanta Center
07:05 37.3925 -80.6747 186° South 423 487 36,000  Level Atlanta Center
07:06 37.2761 -80.6900 186° South 423 487 36,000  Level Atlanta Center
07:07 37.1475 -80.7058 186° South 423 487 36,000  Level Atlanta Center
07:08 37.0292 -80.7239 187° South 423 487 36,000  Level Atlanta Center
07:09 36.9125 -80.7339 184° South 423 487 36,000  Level Atlanta Center
07:10 36.7981 -80.7439 184° South 423 487 36,000  Level Atlanta Center
07:11 36.6839 -80.7564 185° South 417 480 36,000  Level Atlanta Center
07:12 36.5675 -80.7689 185° South 424 488 36,000  Level Atlanta Center
07:13 36.4508 -80.7814 185° South 424 488 36,000  Level Atlanta Center
07:14 36.3325 -80.7939 185° South 424 488 36,000  Level Atlanta Center
07:15 36.2139 -80.8092 186° South 424 488 36,000  Level Atlanta Center
07:16 36.0975 -80.8189 184° South 425 489 36,000  Level Atlanta Center
07:17 35.9808 -80.8311 185° South 425 489 36,000  Level Atlanta Center
07:18 35.8747 -80.8431 185° South 425 489 36,000  Level Atlanta Center
07:19 35.7561 -80.8553 185° South 425 489 36,000  Level Atlanta Center
07:20 35.6378 -80.8678 185° South 425 489 36,000  Level Atlanta Center
07:21 35.5192 -80.8825 186° South 425 489 36,000  Level Atlanta Center
07:22 35.3881 -80.8950 184° South 425 489 36,000  Level Atlanta Center
07:23 35.2694 -80.9125 187° South 425 489 36,000  Level Atlanta Center
07:24 35.1508 -80.9219 184° South 425 489 36,000  Level Atlanta Center
07:25 34.9728 -80.9419 185° South 431 496 36,000  Level Jacksonville Center
07:26 34.8522 -80.9547 185° South 431 496 36,000  Level Jacksonville Center
07:27 34.7356 -80.9675 185° South 431 496 36,000  Level Jacksonville Center
07:28 34.6186 -80.9675 180° South 424 488 36,000  Level Jacksonville Center
07:29 34.4939 -80.9906 189° South 431 496 36,000  Level Jacksonville Center
07:30 34.3628 -81.0061 186° South 431 496 36,000  Level Jacksonville Center
07:31 34.2503 -81.0161 184° South 432 497 36,000  Level Jacksonville Center
07:32 34.1314 -81.0311 186° South 427 491 36,000  Level Jacksonville Center
07:33 34.0231 -81.0358 182° South 422 486 36,000  Level Jacksonville Center
07:34 33.9064 -81.0483 185° South 422 486 36,000  Level Jacksonville Center
07:35 33.7856 -81.0608 185° South 422 486 36,000  Level Jacksonville Center
07:36 33.6564 -81.0736 185° South 422 486 36,000  Level Jacksonville Center
07:37 33.5356 -81.0836 184° South 422 486 36,000  Level Jacksonville Center
07:38 33.4189 -81.0958 185° South 422 486 36,000  Level Jacksonville Center
07:39 33.3103 -81.1031 183° South 428 493 36,000  Level Jacksonville Center
07:40 33.1875 -81.1156 185° South 428 493 36,000  Level Jacksonville Center
07:41 33.0728 -81.1250 184° South 428 493 36,000  Level Jacksonville Center
07:42 32.9517 -81.1350 184° South 428 493 36,000  Level Jacksonville Center
07:43 32.8308 -81.1422 183° South 433 498 36,000  Level Jacksonville Center
07:44 32.7142 -81.1519 184° South 433 498 36,000  Level Jacksonville Center
07:45 32.5847 -81.1642 185° South 433 498 36,000  Level Jacksonville Center
07:46 32.4764 -81.1761 185° South 433 498 36,000  Level Jacksonville Center
07:47 32.3514 -81.1833 183° South 440 506 36,000  Level Jacksonville Center
07:48 32.2344 -81.1931 184° South 440 506 36,000  Level Jacksonville Center
07:49 32.1178 -81.2025 184° South 440 506 36,000  Level Jacksonville Center
07:50 31.9986 -81.1972 178° South 435 501 36,000  Level Jacksonville Center
07:51 31.8692 -81.1925 178° South 435 501 36,000  Level Jacksonville Center
07:52 31.7606 -81.1894 179° South 430 495 36,000  Level Jacksonville Center
07:53 31.6311 -81.1844 178° South 430 495 36,000  Level Jacksonville Center
07:54 31.5119 -81.1794 178° South 430 495 36,000  Level Jacksonville Center
07:55 31.4033 -81.1767 179° South 430 495 36,000  Level Jacksonville Center
07:56 31.2739 -81.1742 179° South 435 501 36,000  Level Jacksonville Center
07:57 31.1528 -81.1714 179° South 435 501 36,000 -480 Level Jacksonville Center
07:58 31.0336 -81.1639 177° South 435 501 35,100 -960 Descending Jacksonville Center
07:59 30.9144 -81.1636 180° South 440 506 34,100 -600 Descending Jacksonville Center
08:00 30.7933 -81.1561 177° South 440 506 34,000 -120 Descending Jacksonville Center
08:01 30.6722 -81.1536 179° South 440 506 33,900 -600 Descending Jacksonville Center
08:02 30.5489 -81.1511 179° South 440 506 32,800 -1,020 Descending Jacksonville Center
08:03 30.4217 -81.1486 179° South 440 506 31,900 -420 Descending Jacksonville Center
08:04 30.3006 -81.1433 178° South 440 506 32,000  Climbing Jacksonville Center
08:05 30.1731 -81.1411 179° South 445 512 32,000 -60 Level Jacksonville Center
08:06 30.0478 -81.1386 179° South 445 512 31,900 -1,200 Descending Jacksonville Center
08:07 29.9244 -81.1336 178° South 445 512 29,600 -2,340 Descending Jacksonville Center
08:08 29.8033 -81.1308 179° South 445 512 27,300 -2,400 Descending Jacksonville Center
08:09 29.6864 -81.1283 179° South 439 505 24,900 -2,280 Descending Jacksonville Center
08:10 29.5736 -81.1231 178° South 428 493 22,800 -2,100 Descending Jacksonville Center
08:11 29.4714 -81.1178 177° South 400 460 20,700 -2,100 Descending Jacksonville Center
08:12 29.3689 -81.1150 179° South 381 438 18,700 -1,980 Descending Jacksonville Center
08:13 29.2667 -81.1119 179° South 369 425 16,800 -2,040 Descending Jacksonville Center
08:14 29.1664 -81.1019 175° South 363 418 14,700 -2,100 Descending Jacksonville Center
08:15 29.0639 -81.0967 177° South 363 418 12,600 -1,380 Descending Jacksonville Center
08:16 28.9719 -81.0842 173° South 358 412 12,000 -1,080 Descending Jacksonville Center
08:17 28.8667 -81.0667 172° South 294 338 10,300 -1,560 Descending Orlando TRACON
08:18 28.8000 -81.0667 180° South 287 330 8,600 -1,740 Descending Orlando TRACON
08:19 28.7333 -81.1167 213° Southwest 285 328 6,900 -1,800 Descending Orlando TRACON
08:20 28.6833 -81.1833 229° Southwest 280 322 5,000 -1,860 Descending Orlando TRACON
08:21 28.6333 -81.2500 229° Southwest 261 300 3,200 -1,020 Descending Orlando TRACON
08:22 28.5833 -81.3000 221° Southwest 199 229 3,000 -480 Descending Orlando TRACON
08:23 28.5333 -81.3000 180° South 170 196 2,200 -900 Descending Orlando TRACON
08:24 28.4833 -81.3000 180° South 152 175 1,200 -900 Descending Orlando TRACON
08:25 28.4500 -81.3000 180° South 125 144 600 -720 Descending Orlando TRACON
08:27 28.4294 -81.3090 180° South  Level Estimated
08:34 28.4294 -81.3090 180° South  Level Estimated
08:35 28.4294 -81.3090 180° South  Level Estimated
08:36 28.4294 -81.3090 180° South  Level Estimated
08:37 28.4294 -81.3090 180° South  Level Estimated